createdAt,value
2017-11-27T00:00:02.516Z,1018.84
2017-11-27T00:01:11.475Z,1018.81
2017-11-27T00:02:20.965Z,1018.86
2017-11-27T00:03:29.878Z,1018.82
2017-11-27T00:04:38.534Z,1018.81
2017-11-27T00:05:47.756Z,1018.79
2017-11-27T00:06:57.183Z,1018.77
2017-11-27T00:08:06.398Z,1018.72
2017-11-27T00:09:15.581Z,1018.8
2017-11-27T00:10:24.493Z,1018.81
2017-11-27T00:11:33.413Z,1018.79
2017-11-27T00:12:42.578Z,1018.79
2017-11-27T00:13:51.501Z,1018.8
2017-11-27T00:15:00.687Z,1018.79
2017-11-27T00:16:09.891Z,1018.79
2017-11-27T00:17:19.344Z,1018.74
2017-11-27T00:18:28.259Z,1018.75
2017-11-27T00:19:37.184Z,1018.75
2017-11-27T00:20:46.091Z,1018.74
2017-11-27T00:21:55.257Z,1018.73
2017-11-27T00:23:04.992Z,1018.76
2017-11-27T00:24:14.195Z,1018.79
2017-11-27T00:25:23.095Z,1018.76
2017-11-27T00:26:32.007Z,1018.77
2017-11-27T00:27:41.196Z,1018.75
2017-11-27T00:28:50.375Z,1018.73
2017-11-27T00:29:59.287Z,1018.76
2017-11-27T00:31:07.938Z,1018.78
2017-11-27T00:32:16.864Z,1018.8
2017-11-27T00:33:25.775Z,1018.79
2017-11-27T00:34:34.952Z,1018.75
2017-11-27T00:35:43.861Z,1018.76
2017-11-27T00:36:52.501Z,1018.72
2017-11-27T00:38:01.665Z,1018.72
2017-11-27T00:39:10.839Z,1018.68
2017-11-27T00:40:20.320Z,1018.67
2017-11-27T00:41:29.234Z,1018.66
2017-11-27T00:42:38.268Z,1018.64
2017-11-27T00:43:47.733Z,1018.63
2017-11-27T00:44:56.652Z,1018.64
2017-11-27T00:46:05.593Z,1018.62
2017-11-27T00:47:14.539Z,1018.56
2017-11-27T00:48:24.038Z,1018.57
2017-11-27T00:49:33.247Z,1018.56
2017-11-27T00:50:42.470Z,1018.6
2017-11-27T00:51:51.716Z,1018.59
2017-11-27T00:53:01.411Z,1018.62
2017-11-27T00:54:10.327Z,1018.58
2017-11-27T00:55:18.969Z,1018.6
2017-11-27T00:56:27.961Z,1018.59
2017-11-27T00:57:37.438Z,1018.63
2017-11-27T00:58:46.100Z,1018.58
2017-11-27T00:59:55.010Z,1018.6
2017-11-27T01:01:04.213Z,1018.58
2017-11-27T01:02:13.385Z,1018.64
2017-11-27T01:03:22.036Z,1018.6
2017-11-27T01:04:31.217Z,1018.6
2017-11-27T01:05:40.653Z,1018.6
2017-11-27T01:06:49.323Z,1018.61
2017-11-27T01:07:58.227Z,1018.66
2017-11-27T01:09:07.136Z,1018.61
2017-11-27T01:10:16.066Z,1018.56
2017-11-27T01:11:24.971Z,1018.54
2017-11-27T01:12:34.144Z,1018.54
2017-11-27T01:13:43.382Z,1018.53
2017-11-27T01:14:52.990Z,1018.61
2017-11-27T01:16:02.698Z,1018.58
2017-11-27T01:17:11.617Z,1018.64
2017-11-27T01:18:20.281Z,1018.6
2017-11-27T01:19:29.986Z,1018.6
2017-11-27T01:20:38.896Z,1018.55
2017-11-27T01:21:47.553Z,1018.5
2017-11-27T01:22:56.453Z,1018.46
2017-11-27T01:24:05.257Z,1018.54
2017-11-27T01:25:14.172Z,1018.6
2017-11-27T01:26:23.372Z,1018.61
2017-11-27T01:27:32.815Z,1018.56
2017-11-27T01:28:41.729Z,1018.62
2017-11-27T01:29:50.924Z,1018.69
2017-11-27T01:30:59.910Z,1018.65
2017-11-27T01:32:09.086Z,1018.68
2017-11-27T01:33:18.536Z,1018.66
2017-11-27T01:34:27.996Z,1018.63
2017-11-27T01:35:37.184Z,1018.52
2017-11-27T01:36:46.627Z,1018.53
2017-11-27T01:37:56.380Z,1018.52
2017-11-27T01:39:05.297Z,1018.51
2017-11-27T01:40:14.516Z,1018.52
2017-11-27T01:41:23.471Z,1018.49
2017-11-27T01:42:32.638Z,1018.51
2017-11-27T01:43:41.563Z,1018.53
2017-11-27T01:44:51.002Z,1018.61
2017-11-27T01:46:00.182Z,1018.59
2017-11-27T01:47:09.104Z,1018.59
2017-11-27T01:48:18.285Z,1018.65
2017-11-27T01:49:27.470Z,1018.63
2017-11-27T01:50:36.388Z,1018.58
2017-11-27T01:51:45.579Z,1018.59
2017-11-27T01:52:54.483Z,1018.59
2017-11-27T01:54:03.431Z,1018.57
2017-11-27T01:55:12.872Z,1018.6
2017-11-27T01:56:22.070Z,1018.56
2017-11-27T01:57:30.984Z,1018.54
2017-11-27T01:58:39.641Z,1018.51
2017-11-27T01:59:48.557Z,1018.5
2017-11-27T02:00:57.471Z,1018.48
2017-11-27T02:02:06.129Z,1018.48
2017-11-27T02:03:15.075Z,1018.52
2017-11-27T02:04:24.516Z,1018.52
2017-11-27T02:05:33.985Z,1018.52
2017-11-27T02:06:43.434Z,1018.52
2017-11-27T02:07:52.337Z,1018.5
2017-11-27T02:09:01.531Z,1018.47
2017-11-27T02:10:11.233Z,1018.46
2017-11-27T02:11:20.429Z,1018.45
2017-11-27T02:12:29.339Z,1018.43
2017-11-27T02:13:37.990Z,1018.38
2017-11-27T02:14:46.906Z,1018.32
2017-11-27T02:15:56.390Z,1018.36
2017-11-27T02:17:05.589Z,1018.3
2017-11-27T02:18:15.020Z,1018.32
2017-11-27T02:19:24.205Z,1018.28
2017-11-27T02:20:33.412Z,1018.29
2017-11-27T02:21:42.866Z,1018.23
2017-11-27T02:22:51.522Z,1018.26
2017-11-27T02:24:00.436Z,1018.26
2017-11-27T02:25:09.607Z,1018.23
2017-11-27T02:26:18.564Z,1018.2
2017-11-27T02:27:28.027Z,1018.18
2017-11-27T02:28:37.231Z,1018.15
2017-11-27T02:29:46.960Z,1018.16
2017-11-27T02:30:56.141Z,1018.12
2017-11-27T02:32:05.848Z,1018.12
2017-11-27T02:33:15.552Z,1018.1
2017-11-27T02:34:25.019Z,1018.11
2017-11-27T02:35:34.479Z,1018.08
2017-11-27T02:36:44.008Z,1018.05
2017-11-27T02:37:52.943Z,1018.06
2017-11-27T02:39:02.397Z,1018.09
2017-11-27T02:40:11.591Z,1018.07
2017-11-27T02:41:20.532Z,1018.03
2017-11-27T02:42:29.720Z,1018.06
2017-11-27T02:43:38.922Z,1018.07
2017-11-27T02:44:48.426Z,1018.05
2017-11-27T02:45:57.866Z,1018.05
2017-11-27T02:47:06.856Z,1018.08
2017-11-27T02:48:15.765Z,1018.04
2017-11-27T02:49:24.954Z,1018.05
2017-11-27T02:50:34.124Z,1018.07
2017-11-27T02:51:43.842Z,1018.06
2017-11-27T02:52:53.340Z,1018.08
2017-11-27T02:54:02.542Z,1018.07
2017-11-27T02:55:11.475Z,1018.06
2017-11-27T02:56:20.928Z,1018.08
2017-11-27T02:57:30.377Z,1018.05
2017-11-27T02:58:39.562Z,1018.02
2017-11-27T02:59:48.778Z,1018.01
2017-11-27T03:00:57.994Z,1018.02
2017-11-27T03:02:06.905Z,1017.93
2017-11-27T03:03:16.083Z,1017.97
2017-11-27T03:04:25.297Z,1017.96
2017-11-27T03:05:34.229Z,1017.96
2017-11-27T03:06:43.401Z,1017.95
2017-11-27T03:07:53.105Z,1017.93
2017-11-27T03:09:02.047Z,1017.91
2017-11-27T03:10:10.977Z,1017.93
2017-11-27T03:11:20.415Z,1017.88
2017-11-27T03:12:29.883Z,1017.93
2017-11-27T03:13:38.524Z,1017.91
2017-11-27T03:14:47.696Z,1017.93
2017-11-27T03:15:56.860Z,1017.89
2017-11-27T03:17:06.054Z,1017.88
2017-11-27T03:18:14.977Z,1017.89
2017-11-27T03:19:23.632Z,1017.91
2017-11-27T03:20:33.089Z,1017.85
2017-11-27T03:21:41.998Z,1017.81
2017-11-27T03:22:51.180Z,1017.8
2017-11-27T03:24:00.104Z,1017.79
2017-11-27T03:25:09.025Z,1017.72
2017-11-27T03:26:18.206Z,1017.72
2017-11-27T03:27:27.641Z,1017.72
2017-11-27T03:28:37.364Z,1017.68
2017-11-27T03:29:46.528Z,1017.71
2017-11-27T03:30:55.701Z,1017.66
2017-11-27T03:32:04.873Z,1017.65
2017-11-27T03:33:14.052Z,1017.66
2017-11-27T03:34:23.235Z,1017.65
2017-11-27T03:35:32.684Z,1017.65
2017-11-27T03:36:41.618Z,1017.65
2017-11-27T03:37:50.801Z,1017.65
2017-11-27T03:38:59.830Z,1017.64
2017-11-27T03:40:09.007Z,1017.63
2017-11-27T03:41:18.192Z,1017.63
2017-11-27T03:42:27.641Z,1017.61
2017-11-27T03:43:36.823Z,1017.61
2017-11-27T03:44:45.740Z,1017.58
2017-11-27T03:45:54.645Z,1017.56
2017-11-27T03:47:03.568Z,1017.53
2017-11-27T03:48:12.751Z,1017.46
2017-11-27T03:49:22.474Z,1017.43
2017-11-27T03:50:31.926Z,1017.48
2017-11-27T03:51:41.353Z,1017.44
2017-11-27T03:52:50.531Z,1017.37
2017-11-27T03:53:59.271Z,1017.41
2017-11-27T03:55:07.945Z,1017.41
2017-11-27T03:56:16.856Z,1017.39
2017-11-27T03:57:26.035Z,1017.43
2017-11-27T03:58:35.203Z,1017.43
2017-11-27T03:59:44.382Z,1017.43
2017-11-27T04:00:53.323Z,1017.45
2017-11-27T04:02:02.832Z,1017.41
2017-11-27T04:03:11.745Z,1017.36
2017-11-27T04:04:20.931Z,1017.34
2017-11-27T04:05:30.382Z,1017.33
2017-11-27T04:06:39.035Z,1017.29
2017-11-27T04:07:48.225Z,1017.25
2017-11-27T04:08:56.878Z,1017.21
2017-11-27T04:10:05.562Z,1017.22
2017-11-27T04:11:14.763Z,1017.2
2017-11-27T04:12:24.228Z,1017.18
2017-11-27T04:13:33.144Z,1017.18
2017-11-27T04:14:42.311Z,1017.15
2017-11-27T04:15:51.746Z,1017.15
2017-11-27T04:17:00.929Z,1017.1
2017-11-27T04:18:09.881Z,1017.1
2017-11-27T04:19:19.060Z,1017.13
2017-11-27T04:20:27.970Z,1017.05
2017-11-27T04:21:37.175Z,1017.05
2017-11-27T04:22:46.090Z,1016.99
2017-11-27T04:23:55.261Z,1017.02
2017-11-27T04:25:03.917Z,1016.95
2017-11-27T04:26:13.365Z,1016.98
2017-11-27T04:27:22.550Z,1016.97
2017-11-27T04:28:32.023Z,1016.92
2017-11-27T04:29:41.463Z,1016.95
2017-11-27T04:30:50.378Z,1016.94
2017-11-27T04:31:59.818Z,1016.95
2017-11-27T04:33:08.740Z,1016.96
2017-11-27T04:34:17.925Z,1016.97
2017-11-27T04:35:27.115Z,1016.96
2017-11-27T04:36:35.784Z,1016.94
2017-11-27T04:37:44.683Z,1016.91
2017-11-27T04:38:53.881Z,1016.91
2017-11-27T04:40:03.065Z,1016.93
2017-11-27T04:41:12.575Z,1016.91
2017-11-27T04:42:21.801Z,1016.88
2017-11-27T04:43:30.703Z,1016.9
2017-11-27T04:44:39.656Z,1016.92
2017-11-27T04:45:48.827Z,1016.87
2017-11-27T04:46:57.757Z,1016.88
2017-11-27T04:48:06.678Z,1016.88
2017-11-27T04:49:15.854Z,1016.82
2017-11-27T04:50:25.316Z,1016.81
2017-11-27T04:51:34.504Z,1016.76
2017-11-27T04:52:43.665Z,1016.76
2017-11-27T04:53:53.368Z,1016.74
2017-11-27T04:55:02.297Z,1016.72
2017-11-27T04:56:11.602Z,1016.65
2017-11-27T04:57:21.041Z,1016.64
2017-11-27T04:58:29.981Z,1016.65
2017-11-27T04:59:38.937Z,1016.64
2017-11-27T05:00:47.859Z,1016.67
2017-11-27T05:01:57.109Z,1016.68
2017-11-27T05:03:05.766Z,1016.63
2017-11-27T05:04:15.214Z,1016.66
2017-11-27T05:05:24.686Z,1016.64
2017-11-27T05:06:33.876Z,1016.62
2017-11-27T05:07:43.039Z,1016.57
2017-11-27T05:08:52.504Z,1016.5
2017-11-27T05:10:01.429Z,1016.57
2017-11-27T05:11:10.654Z,1016.56
2017-11-27T05:12:20.111Z,1016.51
2017-11-27T05:13:29.020Z,1016.5
2017-11-27T05:14:37.942Z,1016.5
2017-11-27T05:15:47.138Z,1016.54
2017-11-27T05:16:56.051Z,1016.51
2017-11-27T05:18:05.502Z,1016.47
2017-11-27T05:19:14.431Z,1016.42
2017-11-27T05:20:23.595Z,1016.38
2017-11-27T05:21:32.301Z,1016.37
2017-11-27T05:22:42.006Z,1016.37
2017-11-27T05:23:51.717Z,1016.36
2017-11-27T05:25:00.768Z,1016.35
2017-11-27T05:26:09.914Z,1016.36
2017-11-27T05:27:19.414Z,1016.37
2017-11-27T05:28:28.328Z,1016.33
2017-11-27T05:29:37.524Z,1016.35
2017-11-27T05:30:46.992Z,1016.32
2017-11-27T05:31:55.940Z,1016.32
2017-11-27T05:33:04.887Z,1016.29
2017-11-27T05:34:14.091Z,1016.3
2017-11-27T05:35:23.009Z,1016.27
2017-11-27T05:36:32.282Z,1016.22
2017-11-27T05:37:41.215Z,1016.21
2017-11-27T05:38:50.157Z,1016.18
2017-11-27T05:39:59.353Z,1016.19
2017-11-27T05:41:08.545Z,1016.16
2017-11-27T05:42:17.746Z,1016.12
2017-11-27T05:43:27.743Z,1016.13
2017-11-27T05:44:36.917Z,1016.09
2017-11-27T05:45:45.868Z,1016.1
2017-11-27T05:46:54.831Z,1016.09
2017-11-27T05:48:04.023Z,1016.06
2017-11-27T05:49:13.480Z,1016.04
2017-11-27T05:50:22.433Z,1016.05
2017-11-27T05:51:31.347Z,1016.01
2017-11-27T05:52:40.856Z,1016.07
2017-11-27T05:53:49.814Z,1016.06
2017-11-27T05:54:58.719Z,1016
2017-11-27T05:56:07.895Z,1016.03
2017-11-27T05:57:17.118Z,1016.02
2017-11-27T05:58:26.564Z,1015.97
2017-11-27T05:59:35.544Z,1015.95
2017-11-27T06:00:44.792Z,1015.93
2017-11-27T06:01:53.717Z,1015.9
2017-11-27T06:03:02.921Z,1015.97
2017-11-27T06:04:11.884Z,1015.9
2017-11-27T06:05:20.824Z,1015.83
2017-11-27T06:06:30.018Z,1015.87
2017-11-27T06:07:40.020Z,1015.9
2017-11-27T06:08:49.219Z,1015.81
2017-11-27T06:09:58.676Z,1015.79
2017-11-27T06:11:07.601Z,1015.74
2017-11-27T06:12:16.256Z,1015.7
2017-11-27T06:13:24.945Z,1015.68
2017-11-27T06:14:34.141Z,1015.68
2017-11-27T06:15:43.090Z,1015.68
2017-11-27T06:16:52.590Z,1015.63
2017-11-27T06:18:01.493Z,1015.62
2017-11-27T06:19:10.960Z,1015.69
2017-11-27T06:20:20.404Z,1015.63
2017-11-27T06:21:29.605Z,1015.62
2017-11-27T06:22:38.507Z,1015.6
2017-11-27T06:23:47.726Z,1015.54
2017-11-27T06:24:56.634Z,1015.6
2017-11-27T06:26:06.067Z,1015.51
2017-11-27T06:27:15.544Z,1015.44
2017-11-27T06:28:24.460Z,1015.43
2017-11-27T06:29:33.373Z,1015.39
2017-11-27T06:30:42.545Z,1015.39
2017-11-27T06:31:52.000Z,1015.34
2017-11-27T06:33:00.909Z,1015.32
2017-11-27T06:34:09.813Z,1015.37
2017-11-27T06:35:18.454Z,1015.29
2017-11-27T06:36:27.109Z,1015.26
2017-11-27T06:37:36.018Z,1015.2
2017-11-27T06:38:45.197Z,1015.22
2017-11-27T06:39:54.383Z,1015.22
2017-11-27T06:41:04.095Z,1015.24
2017-11-27T06:42:13.261Z,1015.27
2017-11-27T06:43:22.194Z,1015.24
2017-11-27T06:44:31.097Z,1015.25
2017-11-27T06:45:40.295Z,1015.25
2017-11-27T06:46:49.211Z,1015.18
2017-11-27T06:47:58.640Z,1015.23
2017-11-27T06:49:07.815Z,1015.24
2017-11-27T06:50:17.003Z,1015.21
2017-11-27T06:51:25.903Z,1015.21
2017-11-27T06:52:34.827Z,1015.16
2017-11-27T06:53:43.472Z,1015.19
2017-11-27T06:54:52.131Z,1015.14
2017-11-27T06:56:01.371Z,1015.2
2017-11-27T06:57:10.022Z,1015.17
2017-11-27T06:58:19.773Z,1015.14
2017-11-27T06:59:29.230Z,1015.1
2017-11-27T07:00:38.140Z,1015.01
2017-11-27T07:01:47.368Z,1015.01
2017-11-27T07:02:56.001Z,1015.03
2017-11-27T07:04:04.931Z,1015.01
2017-11-27T07:05:14.172Z,1015.01
2017-11-27T07:06:23.107Z,1015.01
2017-11-27T07:07:32.391Z,1014.95
2017-11-27T07:08:41.844Z,1014.93
2017-11-27T07:09:51.023Z,1014.92
2017-11-27T07:10:59.692Z,1014.9
2017-11-27T07:12:08.651Z,1014.81
2017-11-27T07:13:17.851Z,1014.83
2017-11-27T07:14:26.770Z,1014.84
2017-11-27T07:15:35.997Z,1014.82
2017-11-27T07:16:44.954Z,1014.78
2017-11-27T07:17:53.882Z,1014.8
2017-11-27T07:19:02.841Z,1014.79
2017-11-27T07:20:12.014Z,1014.75
2017-11-27T07:21:21.212Z,1014.68
2017-11-27T07:22:29.897Z,1014.67
2017-11-27T07:23:39.363Z,1014.72
2017-11-27T07:24:48.538Z,1014.76
2017-11-27T07:25:57.472Z,1014.75
2017-11-27T07:27:06.925Z,1014.67
2017-11-27T07:28:16.185Z,1014.68
2017-11-27T07:29:26.312Z,1014.64
2017-11-27T07:30:35.488Z,1014.61
2017-11-27T07:31:44.949Z,1014.54
2017-11-27T07:32:54.123Z,1014.59
2017-11-27T07:34:03.047Z,1014.48
2017-11-27T07:35:11.732Z,1014.54
2017-11-27T07:36:20.381Z,1014.46
2017-11-27T07:37:29.859Z,1014.47
2017-11-27T07:38:38.578Z,1014.47
2017-11-27T07:39:47.525Z,1014.45
2017-11-27T07:40:57.015Z,1014.43
2017-11-27T07:42:05.676Z,1014.46
2017-11-27T07:43:14.651Z,1014.41
2017-11-27T07:44:23.866Z,1014.42
2017-11-27T07:45:32.809Z,1014.4
2017-11-27T07:46:41.752Z,1014.39
2017-11-27T07:47:50.984Z,1014.39
2017-11-27T07:49:00.164Z,1014.32
2017-11-27T07:50:09.117Z,1014.28
2017-11-27T07:51:17.819Z,1014.3
2017-11-27T07:52:26.488Z,1014.28
2017-11-27T07:53:35.150Z,1014.22
2017-11-27T07:54:44.873Z,1014.24
2017-11-27T07:55:54.317Z,1014.2
2017-11-27T07:57:03.760Z,1014.12
2017-11-27T07:58:12.933Z,1014.12
2017-11-27T07:59:22.385Z,1014.13
2017-11-27T08:00:31.554Z,1014.05
2017-11-27T08:01:41.314Z,1014.07
2017-11-27T08:02:50.239Z,1014.11
2017-11-27T08:03:59.436Z,1014.09
2017-11-27T08:05:08.090Z,1014.09
2017-11-27T08:06:17.291Z,1014.06
2017-11-27T08:07:26.486Z,1014.06
2017-11-27T08:08:35.667Z,1014.03
2017-11-27T08:09:45.217Z,1014.05
2017-11-27T08:10:54.133Z,1014.07
2017-11-27T08:12:03.911Z,1014.03
2017-11-27T08:13:16.123Z,1014.03
2017-11-27T08:14:25.577Z,1014.04
2017-11-27T08:15:34.241Z,1014
2017-11-27T08:16:43.424Z,1013.97
2017-11-27T08:17:52.343Z,1013.94
2017-11-27T08:19:01.882Z,1013.93
2017-11-27T08:20:11.350Z,1013.93
2017-11-27T08:21:20.814Z,1013.84
2017-11-27T08:22:29.764Z,1013.86
2017-11-27T08:23:38.956Z,1013.78
2017-11-27T08:24:48.134Z,1013.79
2017-11-27T08:25:57.355Z,1013.75
2017-11-27T08:27:06.285Z,1013.81
2017-11-27T08:28:15.247Z,1013.78
2017-11-27T08:29:24.432Z,1013.74
2017-11-27T08:30:33.387Z,1013.69
2017-11-27T08:31:42.870Z,1013.71
2017-11-27T08:32:52.055Z,1013.71
2017-11-27T08:34:01.526Z,1013.7
2017-11-27T08:35:11.005Z,1013.7
2017-11-27T08:36:20.191Z,1013.65
2017-11-27T08:37:29.933Z,1013.61
2017-11-27T08:38:38.932Z,1013.64
2017-11-27T08:39:48.381Z,1013.6
2017-11-27T08:40:57.883Z,1013.53
2017-11-27T08:42:07.357Z,1013.52
2017-11-27T08:43:16.615Z,1013.5
2017-11-27T08:44:25.670Z,1013.44
2017-11-27T08:45:34.604Z,1013.36
2017-11-27T08:46:43.539Z,1013.36
2017-11-27T08:47:52.459Z,1013.36
2017-11-27T08:49:01.392Z,1013.29
2017-11-27T08:50:10.321Z,1013.32
2017-11-27T08:51:19.818Z,1013.28
2017-11-27T08:52:28.514Z,1013.23
2017-11-27T08:53:37.958Z,1013.25
2017-11-27T08:54:47.134Z,1013.26
2017-11-27T08:55:55.803Z,1013.24
2017-11-27T08:57:05.273Z,1013.23
2017-11-27T08:58:14.196Z,1013.24
2017-11-27T08:59:23.687Z,1013.19
2017-11-27T09:00:32.954Z,1013.2
2017-11-27T09:01:42.128Z,1013.17
2017-11-27T09:02:51.899Z,1013.15
2017-11-27T09:04:00.549Z,1013.15
2017-11-27T09:05:10.023Z,1013.1
2017-11-27T09:06:18.956Z,1013.05
2017-11-27T09:07:27.873Z,1013.03
2017-11-27T09:08:37.094Z,1013.02
2017-11-27T09:09:46.317Z,1012.98
2017-11-27T09:10:55.757Z,1012.98
2017-11-27T09:12:04.679Z,1012.96
2017-11-27T09:13:14.149Z,1012.97
2017-11-27T09:14:23.319Z,1012.94
2017-11-27T09:15:32.254Z,1012.9
2017-11-27T09:16:41.181Z,1012.82
2017-11-27T09:17:49.912Z,1012.81
2017-11-27T09:18:59.096Z,1012.85
2017-11-27T09:20:08.267Z,1012.78
2017-11-27T09:21:17.755Z,1012.73
2017-11-27T09:22:27.262Z,1012.72
2017-11-27T09:23:36.723Z,1012.68
2017-11-27T09:24:45.661Z,1012.65
2017-11-27T09:25:54.576Z,1012.58
2017-11-27T09:27:03.745Z,1012.61
2017-11-27T09:28:13.197Z,1012.63
2017-11-27T09:29:22.913Z,1012.6
2017-11-27T09:30:32.099Z,1012.53
2017-11-27T09:31:41.259Z,1012.47
2017-11-27T09:32:50.475Z,1012.42
2017-11-27T09:33:59.662Z,1012.43
2017-11-27T09:35:09.102Z,1012.46
2017-11-27T09:36:18.307Z,1012.41
2017-11-27T09:37:27.499Z,1012.36
2017-11-27T09:38:36.962Z,1012.39
2017-11-27T09:39:46.152Z,1012.37
2017-11-27T09:40:55.082Z,1012.36
2017-11-27T09:42:04.288Z,1012.34
2017-11-27T09:43:13.727Z,1012.36
2017-11-27T09:44:22.908Z,1012.32
2017-11-27T09:45:32.360Z,1012.31
2017-11-27T09:46:42.094Z,1012.24
2017-11-27T09:47:51.038Z,1012.26
2017-11-27T09:48:59.964Z,1012.19
2017-11-27T09:50:09.155Z,1012.19
2017-11-27T09:51:18.606Z,1012.12
2017-11-27T09:52:27.279Z,1012.19
2017-11-27T09:53:36.501Z,1012.1
2017-11-27T09:54:45.671Z,1012.04
2017-11-27T09:55:54.332Z,1012.02
2017-11-27T09:57:03.003Z,1012
2017-11-27T09:58:12.194Z,1012.03
2017-11-27T09:59:21.369Z,1012.01
2017-11-27T10:00:30.311Z,1012
2017-11-27T10:01:39.513Z,1011.92
2017-11-27T10:02:48.455Z,1011.93
2017-11-27T10:03:57.381Z,1011.92
2017-11-27T10:05:06.568Z,1011.91
2017-11-27T10:06:15.499Z,1011.92
2017-11-27T10:07:24.823Z,1011.91
2017-11-27T10:08:34.363Z,1011.91
2017-11-27T10:09:43.809Z,1011.99
2017-11-27T10:10:52.479Z,1011.88
2017-11-27T10:12:02.293Z,1011.87
2017-11-27T10:13:11.023Z,1011.87
2017-11-27T10:14:19.974Z,1011.8
2017-11-27T10:15:29.161Z,1011.79
2017-11-27T10:16:38.390Z,1011.8
2017-11-27T10:17:47.560Z,1011.8
2017-11-27T10:18:56.793Z,1011.81
2017-11-27T10:20:05.705Z,1011.78
2017-11-27T10:21:14.616Z,1011.8
2017-11-27T10:22:24.057Z,1011.76
2017-11-27T10:23:33.550Z,1011.78
2017-11-27T10:24:42.473Z,1011.77
2017-11-27T10:25:51.411Z,1011.74
2017-11-27T10:27:00.419Z,1011.69
2017-11-27T10:28:09.413Z,1011.67
2017-11-27T10:29:18.864Z,1011.73
2017-11-27T10:30:28.050Z,1011.72
2017-11-27T10:31:36.981Z,1011.66
2017-11-27T10:32:46.707Z,1011.6
2017-11-27T10:33:55.633Z,1011.65
2017-11-27T10:35:05.089Z,1011.55
2017-11-27T10:36:13.772Z,1011.57
2017-11-27T10:37:23.228Z,1011.52
2017-11-27T10:38:32.741Z,1011.42
2017-11-27T10:39:41.405Z,1011.43
2017-11-27T10:40:50.324Z,1011.43
2017-11-27T10:41:59.498Z,1011.4
2017-11-27T10:43:08.446Z,1011.33
2017-11-27T10:44:17.861Z,1011.35
2017-11-27T10:45:26.808Z,1011.25
2017-11-27T10:46:35.984Z,1011.2
2017-11-27T10:47:45.449Z,1011.21
2017-11-27T10:48:54.399Z,1011.17
2017-11-27T10:50:04.125Z,1011.13
2017-11-27T10:51:13.312Z,1011.07
2017-11-27T10:52:22.762Z,1011.09
2017-11-27T10:53:32.266Z,1011.16
2017-11-27T10:54:41.180Z,1011.04
2017-11-27T10:55:50.157Z,1011.11
2017-11-27T10:56:58.804Z,1011.09
2017-11-27T10:58:07.983Z,1011.06
2017-11-27T10:59:17.203Z,1011.01
2017-11-27T11:00:26.649Z,1010.95
2017-11-27T11:01:35.865Z,1010.95
2017-11-27T11:02:45.325Z,1010.97
2017-11-27T11:03:53.985Z,1010.92
2017-11-27T11:05:03.156Z,1010.84
2017-11-27T11:06:12.373Z,1010.91
2017-11-27T11:07:21.283Z,1010.89
2017-11-27T11:08:30.215Z,1010.89
2017-11-27T11:09:38.883Z,1010.85
2017-11-27T11:10:47.536Z,1010.86
2017-11-27T11:11:56.462Z,1010.78
2017-11-27T11:13:05.666Z,1010.82
2017-11-27T11:14:14.648Z,1010.75
2017-11-27T11:15:23.852Z,1010.67
2017-11-27T11:16:33.023Z,1010.67
2017-11-27T11:17:42.214Z,1010.61
2017-11-27T11:18:51.666Z,1010.56
2017-11-27T11:20:00.865Z,1010.56
2017-11-27T11:21:10.321Z,1010.53
2017-11-27T11:22:18.974Z,1010.51
2017-11-27T11:23:27.893Z,1010.44
2017-11-27T11:24:37.102Z,1010.39
2017-11-27T11:25:46.539Z,1010.38
2017-11-27T11:26:55.736Z,1010.37
2017-11-27T11:28:05.244Z,1010.26
2017-11-27T11:29:14.434Z,1010.26
2017-11-27T11:30:23.354Z,1010.14
2017-11-27T11:31:32.266Z,1010.12
2017-11-27T11:32:41.185Z,1010.13
2017-11-27T11:33:50.125Z,1010.09
2017-11-27T11:34:59.058Z,1010.09
2017-11-27T11:36:07.741Z,1010.02
2017-11-27T11:37:16.684Z,1010
2017-11-27T11:38:25.922Z,1009.97
2017-11-27T11:39:35.124Z,1009.92
2017-11-27T11:40:44.073Z,1009.84
2017-11-27T11:41:53.267Z,1009.84
2017-11-27T11:43:02.479Z,1009.82
2017-11-27T11:44:11.134Z,1009.76
2017-11-27T11:45:20.356Z,1009.72
2017-11-27T11:46:29.713Z,1009.68
2017-11-27T11:47:38.880Z,1009.7
2017-11-27T11:48:47.809Z,1009.64
2017-11-27T11:49:57.032Z,1009.59
2017-11-27T11:51:06.207Z,1009.57
2017-11-27T11:52:15.162Z,1009.55
2017-11-27T11:53:24.091Z,1009.47
2017-11-27T11:54:33.020Z,1009.44
2017-11-27T11:55:41.987Z,1009.4
2017-11-27T11:56:51.164Z,1009.33
2017-11-27T11:58:00.622Z,1009.29
2017-11-27T11:59:09.558Z,1009.23
2017-11-27T12:00:18.762Z,1009.28
2017-11-27T12:01:27.965Z,1009.24
2017-11-27T12:02:37.159Z,1009.15
2017-11-27T12:03:46.349Z,1009.1
2017-11-27T12:04:56.082Z,1009.03
2017-11-27T12:06:05.013Z,1008.95
2017-11-27T12:07:13.678Z,1008.98
2017-11-27T12:08:22.855Z,1009
2017-11-27T12:09:32.050Z,1008.97
2017-11-27T12:10:41.235Z,1008.9
2017-11-27T12:11:51.216Z,1008.93
2017-11-27T12:12:59.885Z,1008.91
2017-11-27T12:14:09.072Z,1008.93
2017-11-27T12:15:18.245Z,1008.84
2017-11-27T12:16:27.182Z,1008.85
2017-11-27T12:17:36.142Z,1008.83
2017-11-27T12:18:45.072Z,1008.84
2017-11-27T12:19:54.002Z,1008.85
2017-11-27T12:21:02.656Z,1008.8
2017-11-27T12:22:12.436Z,1008.72
2017-11-27T12:23:21.911Z,1008.72
2017-11-27T12:24:31.377Z,1008.68
2017-11-27T12:25:40.344Z,1008.66
2017-11-27T12:26:49.306Z,1008.58
2017-11-27T12:27:58.269Z,1008.59
2017-11-27T12:29:07.725Z,1008.49
2017-11-27T12:30:16.382Z,1008.55
2017-11-27T12:31:25.576Z,1008.6
2017-11-27T12:32:34.748Z,1008.5
2017-11-27T12:33:43.660Z,1008.45
2017-11-27T12:34:52.845Z,1008.4
2017-11-27T12:36:02.288Z,1008.43
2017-11-27T12:37:11.205Z,1008.4
2017-11-27T12:38:20.119Z,1008.4
2017-11-27T12:39:29.323Z,1008.32
2017-11-27T12:40:38.521Z,1008.26
2017-11-27T12:41:47.475Z,1008.32
2017-11-27T12:42:57.193Z,1008.29
2017-11-27T12:44:06.651Z,1008.29
2017-11-27T12:45:16.133Z,1008.25
2017-11-27T12:46:24.834Z,1008.13
2017-11-27T12:47:34.044Z,1008.16
2017-11-27T12:48:43.675Z,1008.2
2017-11-27T12:49:53.157Z,1008.11
2017-11-27T12:51:02.604Z,1008.14
2017-11-27T12:52:11.533Z,1008.13
2017-11-27T12:53:20.711Z,1008.08
2017-11-27T12:54:29.916Z,1008.04
2017-11-27T12:55:39.648Z,1008.12
2017-11-27T12:56:48.576Z,1008.06
2017-11-27T12:57:57.778Z,1008.02
2017-11-27T12:59:07.236Z,1008.04
2017-11-27T13:00:16.973Z,1008
2017-11-27T13:01:26.154Z,1008
2017-11-27T13:02:35.608Z,1008.01
2017-11-27T13:03:44.568Z,1008.01
2017-11-27T13:04:53.500Z,1007.94
2017-11-27T13:06:02.732Z,1007.95
2017-11-27T13:07:11.663Z,1007.93
2017-11-27T13:08:20.864Z,1007.93
2017-11-27T13:09:30.088Z,1007.93
2017-11-27T13:10:39.015Z,1007.92
2017-11-27T13:11:48.239Z,1007.95
2017-11-27T13:12:57.736Z,1007.98
2017-11-27T13:14:06.927Z,1007.93
2017-11-27T13:15:16.103Z,1007.89
2017-11-27T13:16:25.886Z,1007.86
2017-11-27T13:17:35.086Z,1007.91
2017-11-27T13:18:44.290Z,1007.95
2017-11-27T13:19:53.465Z,1008.01
2017-11-27T13:21:02.396Z,1008
2017-11-27T13:22:11.050Z,1007.92
2017-11-27T13:23:19.986Z,1007.92
2017-11-27T13:24:28.958Z,1007.95
2017-11-27T13:25:38.153Z,1007.89
2017-11-27T13:26:46.819Z,1007.86
2017-11-27T13:27:56.264Z,1007.82
2017-11-27T13:29:05.449Z,1007.81
2017-11-27T13:30:14.379Z,1007.83
2017-11-27T13:31:23.553Z,1007.83
2017-11-27T13:32:32.251Z,1007.82
2017-11-27T13:33:40.996Z,1007.79
2017-11-27T13:34:49.910Z,1007.78
2017-11-27T13:35:59.144Z,1007.83
2017-11-27T13:37:08.343Z,1007.8
2017-11-27T13:38:17.572Z,1007.81
2017-11-27T13:39:26.757Z,1007.84
2017-11-27T13:40:35.676Z,1007.8
2017-11-27T13:41:44.604Z,1007.77
2017-11-27T13:42:53.293Z,1007.76
2017-11-27T13:44:02.733Z,1007.77
2017-11-27T13:45:11.921Z,1007.71
2017-11-27T13:46:21.112Z,1007.7
2017-11-27T13:47:30.563Z,1007.69
2017-11-27T13:48:39.483Z,1007.71
2017-11-27T13:49:48.690Z,1007.62
2017-11-27T13:50:57.360Z,1007.63
2017-11-27T13:52:06.029Z,1007.64
2017-11-27T13:53:14.702Z,1007.67
2017-11-27T13:54:24.146Z,1007.63
2017-11-27T13:55:32.807Z,1007.61
2017-11-27T13:56:42.006Z,1007.57
2017-11-27T13:57:51.193Z,1007.55
2017-11-27T13:59:01.180Z,1007.56